createdAt,value
2022-11-26T00:00:58.057Z,18.37
2022-11-26T00:03:26.158Z,16.03
2022-11-26T00:05:57.501Z,19.20
2022-11-26T00:08:30.500Z,20.40
2022-11-26T00:10:58.606Z,19.33
2022-11-26T00:13:29.922Z,20.90
2022-11-26T00:15:58.449Z,21.07
2022-11-26T00:18:27.026Z,18.37
2022-11-26T00:20:57.058Z,21.97
2022-11-26T00:23:27.737Z,23.53
2022-11-26T00:25:57.540Z,19.50
2022-11-26T00:28:29.943Z,18.57
2022-11-26T00:31:00.485Z,17.60
2022-11-26T00:33:29.331Z,15.53
2022-11-26T00:35:59.370Z,20.03
2022-11-26T00:38:27.791Z,18.53
2022-11-26T00:40:55.848Z,19.80
2022-11-26T00:43:24.034Z,14.90
2022-11-26T00:45:53.407Z,20.43
2022-11-26T00:48:21.471Z,18.37
2022-11-26T00:50:51.890Z,17.67
2022-11-26T00:53:23.472Z,20.33
2022-11-26T00:55:51.801Z,22.10
2022-11-26T00:58:25.614Z,20.03
2022-11-26T01:00:56.313Z,20.60
2022-11-26T01:03:24.379Z,18.97
2022-11-26T01:05:54.259Z,20.20
2022-11-26T01:08:29.584Z,17.40
2022-11-26T01:10:57.932Z,18.03
2022-11-26T01:13:26.525Z,23.03
2022-11-26T01:15:57.404Z,19.00
2022-11-26T01:18:26.092Z,20.47
2022-11-26T01:20:54.108Z,15.93
2022-11-26T01:23:22.704Z,17.60
2022-11-26T01:25:50.745Z,24.33
2022-11-26T01:28:20.108Z,13.87
2022-11-26T01:30:48.149Z,23.67
2022-11-26T01:33:17.521Z,17.77
2022-11-26T01:35:45.525Z,17.53
2022-11-26T01:38:15.628Z,18.00
2022-11-26T01:40:55.492Z,22.00
2022-11-26T01:43:28.093Z,16.60
2022-11-26T01:45:57.410Z,17.00
2022-11-26T01:48:30.791Z,18.03
2022-11-26T01:51:02.370Z,20.43
2022-11-26T01:53:44.770Z,18.77
2022-11-26T01:56:20.020Z,17.20
2022-11-26T01:58:52.253Z,14.87
2022-11-26T02:01:21.198Z,17.70
2022-11-26T02:03:59.523Z,21.00
2022-11-26T02:06:32.761Z,19.37
2022-11-26T02:09:02.427Z,14.07
2022-11-26T02:11:30.698Z,17.40
2022-11-26T02:14:03.216Z,17.93
2022-11-26T02:16:48.169Z,17.77
2022-11-26T02:19:42.360Z,15.20
2022-11-26T02:22:26.596Z,18.17
2022-11-26T02:25:01.020Z,14.47
2022-11-26T02:27:50.176Z,18.27
2022-11-26T02:30:19.708Z,18.77
2022-11-26T02:32:59.318Z,17.70
2022-11-26T02:35:33.864Z,17.13
2022-11-26T02:38:06.325Z,19.47
2022-11-26T02:40:34.394Z,16.03
2022-11-26T02:43:02.484Z,16.33
2022-11-26T02:45:35.388Z,15.60
2022-11-26T02:48:06.693Z,19.70
2022-11-26T02:50:39.135Z,17.30
2022-11-26T02:53:09.683Z,13.57
2022-11-26T02:55:43.911Z,15.83
2022-11-26T02:58:12.068Z,15.17
2022-11-26T03:00:43.879Z,17.10
2022-11-26T03:03:22.884Z,15.50
2022-11-26T03:05:54.124Z,17.27
2022-11-26T03:08:22.843Z,13.33
2022-11-26T03:10:51.044Z,15.07
2022-11-26T03:13:19.101Z,16.03
2022-11-26T03:15:48.500Z,14.47
2022-11-26T03:18:16.565Z,15.53
2022-11-26T03:20:44.583Z,16.13
2022-11-26T03:23:12.673Z,14.70
2022-11-26T03:25:41.118Z,17.47
2022-11-26T03:28:09.178Z,13.17
2022-11-26T03:30:37.237Z,15.87
2022-11-26T03:33:06.615Z,14.00
2022-11-26T03:35:34.644Z,14.33
2022-11-26T03:38:02.652Z,16.17
2022-11-26T03:40:30.682Z,13.47
2022-11-26T03:42:58.672Z,12.57
2022-11-26T03:45:27.204Z,13.50
2022-11-26T03:47:55.381Z,13.63
2022-11-26T03:50:24.765Z,13.63
2022-11-26T03:52:53.272Z,13.97
2022-11-26T03:55:21.283Z,13.07
2022-11-26T03:57:49.489Z,16.47
2022-11-26T04:00:18.319Z,15.00
2022-11-26T04:02:46.363Z,14.70
2022-11-26T04:05:14.660Z,14.30
2022-11-26T04:07:44.077Z,17.30
2022-11-26T04:10:12.355Z,17.47
2022-11-26T04:12:40.334Z,16.07
2022-11-26T04:15:10.725Z,15.50
2022-11-26T04:17:38.687Z,14.30
2022-11-26T04:20:08.048Z,14.30
2022-11-26T04:22:36.039Z,12.67
2022-11-26T04:25:06.110Z,13.93
2022-11-26T04:27:34.217Z,12.93
2022-11-26T04:30:02.343Z,12.03
2022-11-26T04:32:30.319Z,14.95
2022-11-26T04:34:58.338Z,12.27
2022-11-26T04:37:26.491Z,12.43
2022-11-26T04:39:54.460Z,13.37
2022-11-26T04:42:23.803Z,12.80
2022-11-26T04:44:51.798Z,12.57
2022-11-26T04:47:19.800Z,12.37
2022-11-26T04:49:47.831Z,11.57
2022-11-26T04:52:15.817Z,12.10
2022-11-26T04:54:43.844Z,13.90
2022-11-26T04:57:11.859Z,13.93
2022-11-26T04:59:41.239Z,13.20
2022-11-26T05:02:09.234Z,13.90
2022-11-26T05:04:37.629Z,13.57
2022-11-26T05:07:06.368Z,13.47
2022-11-26T05:09:34.554Z,14.23
2022-11-26T05:12:02.649Z,13.47
2022-11-26T05:14:30.638Z,14.40
2022-11-26T05:17:00.081Z,13.83
2022-11-26T05:19:28.260Z,13.80
2022-11-26T05:21:56.245Z,15.33
2022-11-26T05:24:24.329Z,17.67
2022-11-26T05:26:56.672Z,13.27
2022-11-26T05:29:25.833Z,14.47
2022-11-26T05:31:54.188Z,16.10
2022-11-26T05:34:23.737Z,14.80
2022-11-26T05:36:51.834Z,15.33
2022-11-26T05:39:20.252Z,14.27
2022-11-26T05:41:48.278Z,13.97
2022-11-26T05:44:16.304Z,16.93
2022-11-26T05:46:44.853Z,17.70
2022-11-26T05:49:12.873Z,17.67
2022-11-26T05:51:42.258Z,15.63
2022-11-26T05:54:13.474Z,22.53
2022-11-26T05:56:41.963Z,23.13
2022-11-26T05:59:10.361Z,17.90
2022-11-26T06:01:38.673Z,17.00
2022-11-26T06:04:07.190Z,15.37
2022-11-26T06:06:35.252Z,18.13
2022-11-26T06:09:05.425Z,19.07
2022-11-26T06:11:33.401Z,16.90
2022-11-26T06:14:01.374Z,18.00
2022-11-26T06:16:29.397Z,16.73
2022-11-26T06:18:58.985Z,15.03
2022-11-26T06:21:26.993Z,16.87
2022-11-26T06:23:59.369Z,17.20
2022-11-26T06:26:29.187Z,18.07
2022-11-26T06:28:57.225Z,16.63
2022-11-26T06:31:25.316Z,16.53
2022-11-26T06:33:55.128Z,18.50
2022-11-26T06:36:23.683Z,16.37
2022-11-26T06:38:51.845Z,17.50
2022-11-26T06:41:19.953Z,15.20
2022-11-26T06:43:49.308Z,18.47
2022-11-26T06:46:17.388Z,19.80
2022-11-26T06:48:45.488Z,18.93
2022-11-26T06:51:15.864Z,16.50
2022-11-26T06:53:44.084Z,20.70
2022-11-26T06:56:18.546Z,23.23
2022-11-26T06:58:49.535Z,22.77
2022-11-26T07:01:19.399Z,20.67
2022-11-26T07:03:47.804Z,19.80
2022-11-26T07:06:20.461Z,20.97
2022-11-26T07:08:49.114Z,18.50
2022-11-26T07:11:17.565Z,20.27
2022-11-26T07:13:46.054Z,15.50
2022-11-26T07:16:15.555Z,18.23
2022-11-26T07:18:43.646Z,20.80
2022-11-26T07:21:13.892Z,16.57
2022-11-26T07:23:42.194Z,16.53
2022-11-26T07:26:11.808Z,16.70
2022-11-26T07:28:40.661Z,16.63
2022-11-26T07:31:16.102Z,14.80
2022-11-26T07:33:46.736Z,24.07
2022-11-26T07:36:17.649Z,16.57
2022-11-26T07:38:46.412Z,18.83
2022-11-26T07:41:16.260Z,17.47
2022-11-26T07:43:45.190Z,16.30
2022-11-26T07:46:17.011Z,24.50
2022-11-26T07:48:46.933Z,16.87
2022-11-26T07:51:20.476Z,17.73
2022-11-26T07:53:49.407Z,16.20
2022-11-26T07:56:18.173Z,18.40
2022-11-26T07:58:46.360Z,16.93
2022-11-26T08:01:16.952Z,17.80
2022-11-26T08:03:48.592Z,16.97
2022-11-26T08:06:19.540Z,17.07
2022-11-26T08:08:47.592Z,17.93
2022-11-26T08:11:17.528Z,16.90
2022-11-26T08:13:46.233Z,17.67
2022-11-26T08:16:15.121Z,20.00
2022-11-26T08:18:43.192Z,22.33
2022-11-26T08:21:12.571Z,25.53
2022-11-26T08:23:40.665Z,21.63
2022-11-26T08:26:33.635Z,17.93
2022-11-26T08:28:58.047Z,18.30
2022-11-26T08:31:27.777Z,18.87
2022-11-26T08:33:58.904Z,18.57
2022-11-26T08:36:29.122Z,26.17
2022-11-26T08:38:57.157Z,18.43
2022-11-26T08:41:25.237Z,20.53
2022-11-26T08:44:08.940Z,19.73
2022-11-26T08:46:37.746Z,20.50
2022-11-26T08:49:06.771Z,21.07
2022-11-26T08:51:36.243Z,21.17
2022-11-26T08:54:04.593Z,24.80
2022-11-26T08:56:32.599Z,22.47
2022-11-26T08:59:00.774Z,29.83
2022-11-26T09:01:32.297Z,22.47
2022-11-26T09:04:02.292Z,23.33
2022-11-26T09:06:32.815Z,26.77
2022-11-26T09:09:15.163Z,22.43
2022-11-26T09:11:46.631Z,22.87
2022-11-26T09:14:17.286Z,25.23
2022-11-26T09:16:46.060Z,26.83
2022-11-26T09:19:15.364Z,25.03
2022-11-26T09:21:44.022Z,22.43
2022-11-26T09:24:13.943Z,23.07
2022-11-26T09:26:42.407Z,23.07
2022-11-26T09:29:14.248Z,23.30
2022-11-26T09:32:00.868Z,28.40
2022-11-26T09:34:30.602Z,27.60
2022-11-26T09:36:58.650Z,27.50
2022-11-26T09:39:28.177Z,23.13
2022-11-26T09:42:05.166Z,31.80
2022-11-26T09:44:58.738Z,22.67
2022-11-26T09:47:28.886Z,20.73
2022-11-26T09:50:04.677Z,22.37
2022-11-26T09:52:38.247Z,20.43
2022-11-26T09:55:16.381Z,22.47
2022-11-26T09:57:47.809Z,25.83
2022-11-26T10:00:25.592Z,28.70
2022-11-26T10:02:55.508Z,25.20
2022-11-26T10:05:31.481Z,31.70
2022-11-26T10:08:08.839Z,41.00
2022-11-26T10:10:53.128Z,39.30
2022-11-26T10:13:29.112Z,41.43
2022-11-26T10:16:05.268Z,32.70
2022-11-26T10:18:41.288Z,37.03
2022-11-26T10:21:27.261Z,31.10
2022-11-26T10:24:15.129Z,30.20
2022-11-26T10:26:44.900Z,26.73
2022-11-26T10:29:24.573Z,25.53
2022-11-26T10:31:57.620Z,27.00
2022-11-26T10:34:37.433Z,24.17
2022-11-26T10:37:07.163Z,26.07
2022-11-26T10:39:35.277Z,30.40
2022-11-26T10:42:14.595Z,25.27
2022-11-26T10:44:42.884Z,32.53
2022-11-26T10:47:24.437Z,27.27
2022-11-26T10:49:53.850Z,29.50
2022-11-26T10:52:25.838Z,33.33
2022-11-26T10:55:17.550Z,35.17
2022-11-26T10:57:51.773Z,28.57
2022-11-26T11:00:35.690Z,30.03
2022-11-26T11:03:05.005Z,28.93
2022-11-26T11:05:34.474Z,31.27
2022-11-26T11:08:02.731Z,27.27
2022-11-26T11:10:30.784Z,30.90
2022-11-26T11:13:12.909Z,31.90
2022-11-26T11:15:42.029Z,34.50
2022-11-26T11:18:19.507Z,32.20
2022-11-26T11:20:55.601Z,35.43
2022-11-26T11:23:39.960Z,35.43
2022-11-26T11:26:18.725Z,40.53
2022-11-26T11:28:50.978Z,37.67
2022-11-26T11:31:21.228Z,37.57
2022-11-26T11:33:50.217Z,39.00
2022-11-26T11:36:29.239Z,38.27
2022-11-26T11:38:59.482Z,42.17
2022-11-26T11:41:31.569Z,43.50
2022-11-26T11:44:05.299Z,43.37
2022-11-26T11:47:08.893Z,44.33
2022-11-26T11:49:51.785Z,38.33
2022-11-26T11:52:29.904Z,41.47
2022-11-26T11:55:05.649Z,39.87
2022-11-26T11:57:45.470Z,40.27
2022-11-26T12:00:18.099Z,43.20
2022-11-26T12:03:23.999Z,44.10
2022-11-26T12:06:16.392Z,43.87
2022-11-26T12:08:56.224Z,43.60
2022-11-26T12:11:35.410Z,45.13
2022-11-26T12:14:08.745Z,47.57
2022-11-26T12:16:48.217Z,45.50
2022-11-26T12:19:26.552Z,42.80
2022-11-26T12:21:59.065Z,46.53
2022-11-26T12:24:41.951Z,50.03
2022-11-26T12:27:18.066Z,51.57
2022-11-26T12:29:53.019Z,46.07
2022-11-26T12:32:29.054Z,49.37
2022-11-26T12:35:00.892Z,56.03
2022-11-26T12:37:33.113Z,46.10
2022-11-26T12:40:05.609Z,50.67
2022-11-26T12:42:41.787Z,49.70
2022-11-26T12:45:19.566Z,46.73
2022-11-26T12:47:54.684Z,48.83
2022-11-26T12:50:32.693Z,52.87
2022-11-26T12:53:15.665Z,54.17
2022-11-26T12:55:51.371Z,45.97
2022-11-26T12:58:24.529Z,51.63
2022-11-26T13:00:54.813Z,48.53
2022-11-26T13:03:28.986Z,44.97
2022-11-26T13:06:04.513Z,37.97
2022-11-26T13:08:44.386Z,44.93
2022-11-26T13:11:25.800Z,47.27
2022-11-26T13:14:02.759Z,47.87
2022-11-26T13:16:39.417Z,51.83
2022-11-26T13:19:18.736Z,48.87
2022-11-26T13:22:11.654Z,59.13
2022-11-26T13:24:57.259Z,59.77
2022-11-26T13:27:41.112Z,58.77
2022-11-26T13:30:20.413Z,55.33
2022-11-26T13:33:31.935Z,49.13
2022-11-26T13:36:50.812Z,54.73
2022-11-26T13:39:41.461Z,59.83
2022-11-26T13:42:36.323Z,57.57
2022-11-26T13:45:29.650Z,49.40
2022-11-26T13:48:05.076Z,55.40
2022-11-26T13:50:40.594Z,57.67
2022-11-26T13:53:18.751Z,55.30
2022-11-26T13:55:54.072Z,50.67
2022-11-26T13:58:27.059Z,58.20
2022-11-26T14:00:56.690Z,71.27
2022-11-26T14:03:46.375Z,67.90
2022-11-26T14:06:16.866Z,64.47
2022-11-26T14:08:52.156Z,59.83
2022-11-26T14:12:00.714Z,63.20
2022-11-26T14:14:35.974Z,68.17
2022-11-26T14:17:28.969Z,61.77
2022-11-26T14:20:02.394Z,68.70
2022-11-26T14:22:34.352Z,67.53
2022-11-26T14:25:10.565Z,62.77
2022-11-26T14:27:44.527Z,67.07
2022-11-26T14:30:27.128Z,66.03
2022-11-26T14:33:13.937Z,70.73
2022-11-26T14:35:54.010Z,65.30
2022-11-26T14:38:28.842Z,67.47
2022-11-26T14:41:03.826Z,71.73
2022-11-26T14:43:33.766Z,75.63
2022-11-26T14:46:08.510Z,65.43
2022-11-26T14:48:43.414Z,74.43
2022-11-26T14:51:12.050Z,69.40
2022-11-26T14:53:45.526Z,67.30
2022-11-26T14:56:15.118Z,62.13
2022-11-26T14:58:47.915Z,69.23
2022-11-26T15:01:21.298Z,65.67
2022-11-26T15:04:00.505Z,61.83
2022-11-26T15:06:34.809Z,60.83
2022-11-26T15:09:14.995Z,68.93
2022-11-26T15:11:49.408Z,62.43
2022-11-26T15:14:25.789Z,64.37
2022-11-26T15:16:59.241Z,69.30
2022-11-26T15:19:28.566Z,64.57
2022-11-26T15:21:56.802Z,68.37
2022-11-26T15:24:25.261Z,73.30
2022-11-26T15:26:54.725Z,71.57
2022-11-26T15:29:32.116Z,73.73
2022-11-26T15:32:03.670Z,78.90
2022-11-26T15:34:34.041Z,72.23
2022-11-26T15:37:02.380Z,70.57
2022-11-26T15:39:32.389Z,73.57
2022-11-26T15:42:07.888Z,78.43
2022-11-26T15:44:42.286Z,74.40
2022-11-26T15:47:19.728Z,75.80
2022-11-26T15:49:54.235Z,82.87
2022-11-26T15:52:25.654Z,78.97
2022-11-26T15:55:16.519Z,78.87
2022-11-26T15:57:52.231Z,75.87
2022-11-26T16:00:23.931Z,86.73
2022-11-26T16:02:52.748Z,97.50
2022-11-26T16:05:28.576Z,90.93
2022-11-26T16:08:03.998Z,80.43
2022-11-26T16:10:35.542Z,92.60
2022-11-26T16:13:18.390Z,82.30
2022-11-26T16:15:49.836Z,74.60
2022-11-26T16:18:19.930Z,91.30
2022-11-26T16:20:48.269Z,76.97
2022-11-26T16:23:30.466Z,79.17
2022-11-26T16:26:17.741Z,87.97
2022-11-26T16:28:48.322Z,80.77
2022-11-26T16:31:18.152Z,84.30
2022-11-26T16:33:46.640Z,92.30
2022-11-26T16:36:26.188Z,80.10
2022-11-26T16:38:54.829Z,91.20
2022-11-26T16:41:24.154Z,88.07
2022-11-26T16:43:53.876Z,80.77
2022-11-26T16:46:24.752Z,83.87
2022-11-26T16:48:53.433Z,91.17
2022-11-26T16:51:22.086Z,84.27
2022-11-26T16:53:50.555Z,86.13
2022-11-26T16:56:23.802Z,89.10
2022-11-26T16:58:53.496Z,87.00
2022-11-26T17:01:21.814Z,83.13
2022-11-26T17:03:49.901Z,86.03
2022-11-26T17:06:24.020Z,89.30
2022-11-26T17:08:52.649Z,96.63
2022-11-26T17:11:20.873Z,96.20
2022-11-26T17:13:48.999Z,92.60
2022-11-26T17:16:20.472Z,83.77
2022-11-26T17:18:49.234Z,89.40
2022-11-26T17:21:17.341Z,82.20
2022-11-26T17:23:45.525Z,100.43
2022-11-26T17:26:18.894Z,90.37
2022-11-26T17:28:47.026Z,92.90
2022-11-26T17:31:15.350Z,97.40
2022-11-26T17:33:44.818Z,82.10
2022-11-26T17:36:17.625Z,89.57
2022-11-26T17:38:46.551Z,90.27
2022-11-26T17:41:16.226Z,99.03
2022-11-26T17:43:44.723Z,83.83
2022-11-26T17:46:18.316Z,82.80
2022-11-26T17:48:48.674Z,83.53
2022-11-26T17:51:17.266Z,86.27
2022-11-26T17:53:45.597Z,80.97
2022-11-26T17:56:18.693Z,80.63
2022-11-26T17:58:47.240Z,67.73
2022-11-26T18:01:16.514Z,85.47
2022-11-26T18:03:45.014Z,74.17
2022-11-26T18:06:17.805Z,82.73
2022-11-26T18:08:46.512Z,93.20
2022-11-26T18:11:16.707Z,76.93
2022-11-26T18:13:45.184Z,82.83
2022-11-26T18:16:13.457Z,83.70
2022-11-26T18:18:41.572Z,87.30
2022-11-26T18:21:09.661Z,86.03
2022-11-26T18:23:41.283Z,83.80
2022-11-26T18:26:17.242Z,90.77
2022-11-26T18:28:50.126Z,81.60
2022-11-26T18:31:18.447Z,82.83
2022-11-26T18:33:48.925Z,86.40
2022-11-26T18:36:16.996Z,85.67
2022-11-26T18:38:46.500Z,83.97
2022-11-26T18:41:14.710Z,81.80
2022-11-26T18:43:42.844Z,87.40
2022-11-26T18:46:15.798Z,114.10
2022-11-26T18:48:45.852Z,94.07
2022-11-26T18:51:20.641Z,88.73
2022-11-26T18:53:50.077Z,96.03
2022-11-26T18:56:21.500Z,96.63
2022-11-26T18:58:53.056Z,93.93
2022-11-26T19:01:25.067Z,79.20
2022-11-26T19:03:53.827Z,89.13
2022-11-26T19:06:24.276Z,90.27
2022-11-26T19:08:59.209Z,90.53
2022-11-26T19:11:28.806Z,82.93
2022-11-26T19:13:58.103Z,87.40
2022-11-26T19:16:28.559Z,83.50
2022-11-26T19:18:56.621Z,79.03
2022-11-26T19:21:27.186Z,83.97
2022-11-26T19:23:59.318Z,78.70
2022-11-26T19:26:30.362Z,78.97
2022-11-26T19:29:02.361Z,83.23
2022-11-26T19:31:30.609Z,79.03
2022-11-26T19:33:58.948Z,79.47
2022-11-26T19:36:27.725Z,87.07
2022-11-26T19:38:58.457Z,74.43
2022-11-26T19:41:26.929Z,83.07
2022-11-26T19:43:55.569Z,85.83
2022-11-26T19:46:25.444Z,80.20
2022-11-26T19:48:55.677Z,84.70
2022-11-26T19:51:26.223Z,82.00
2022-11-26T19:53:56.745Z,74.87
2022-11-26T19:56:26.531Z,74.17
2022-11-26T19:58:57.762Z,72.90
2022-11-26T20:01:29.880Z,75.17
2022-11-26T20:03:59.439Z,77.97
2022-11-26T20:06:29.115Z,70.83
2022-11-26T20:08:59.361Z,76.17
2022-11-26T20:11:28.894Z,72.43
2022-11-26T20:13:58.133Z,83.27
2022-11-26T20:16:27.898Z,65.73
2022-11-26T20:18:56.682Z,71.50
2022-11-26T20:21:26.551Z,71.13
2022-11-26T20:23:56.099Z,78.07
2022-11-26T20:26:27.824Z,75.47
2022-11-26T20:28:57.177Z,72.23
2022-11-26T20:31:25.384Z,67.83
2022-11-26T20:33:57.050Z,72.13
2022-11-26T20:36:25.513Z,77.57
2022-11-26T20:38:54.389Z,68.63
2022-11-26T20:41:23.714Z,74.67
2022-11-26T20:43:58.225Z,65.07
2022-11-26T20:46:29.883Z,68.03
2022-11-26T20:48:58.577Z,67.77
2022-11-26T20:51:27.135Z,66.07
2022-11-26T20:53:59.899Z,61.63
2022-11-26T20:56:28.958Z,65.70
2022-11-26T20:58:58.772Z,66.33
2022-11-26T21:01:28.664Z,66.63
2022-11-26T21:03:57.624Z,64.73
2022-11-26T21:06:30.492Z,63.43
2022-11-26T21:09:01.357Z,65.23
2022-11-26T21:11:30.147Z,67.27
2022-11-26T21:14:01.764Z,65.73
2022-11-26T21:16:31.431Z,68.50
2022-11-26T21:19:00.719Z,69.13
2022-11-26T21:21:29.663Z,58.63
2022-11-26T21:23:58.616Z,65.27
2022-11-26T21:26:27.747Z,62.80
2022-11-26T21:28:57.431Z,57.77
2022-11-26T21:31:28.008Z,59.87
2022-11-26T21:33:57.749Z,65.13
2022-11-26T21:36:27.389Z,58.37
2022-11-26T21:38:55.564Z,57.50
2022-11-26T21:41:24.879Z,54.60
2022-11-26T21:43:53.286Z,62.43
2022-11-26T21:46:23.621Z,55.60
2022-11-26T21:48:54.692Z,61.67
2022-11-26T21:51:23.375Z,58.63
2022-11-26T21:53:51.833Z,52.80
2022-11-26T21:56:21.496Z,52.63
2022-11-26T21:58:50.240Z,56.70
2022-11-26T22:01:20.867Z,60.00
2022-11-26T22:03:50.392Z,54.13
2022-11-26T22:06:21.437Z,58.03
2022-11-26T22:08:49.948Z,55.47
2022-11-26T22:11:19.665Z,57.23
2022-11-26T22:13:48.004Z,52.87
2022-11-26T22:16:17.650Z,54.60
2022-11-26T22:18:47.030Z,53.70
2022-11-26T22:21:17.352Z,57.03
2022-11-26T22:23:46.862Z,52.40
2022-11-26T22:26:15.036Z,58.73
2022-11-26T22:28:43.533Z,50.77
2022-11-26T22:31:13.181Z,56.13
2022-11-26T22:33:41.267Z,58.13
2022-11-26T22:36:10.153Z,50.53
2022-11-26T22:38:39.204Z,48.43
2022-11-26T22:41:10.782Z,47.77
2022-11-26T22:43:39.277Z,52.37
2022-11-26T22:46:08.609Z,52.77
2022-11-26T22:48:36.618Z,52.07
2022-11-26T22:51:05.299Z,46.10
2022-11-26T22:53:34.318Z,45.47
2022-11-26T22:56:03.906Z,49.50
2022-11-26T22:58:35.761Z,47.70
2022-11-26T23:01:05.797Z,44.00
2022-11-26T23:03:36.981Z,45.40
2022-11-26T23:06:06.867Z,45.83
2022-11-26T23:08:35.883Z,46.27
2022-11-26T23:11:17.508Z,43.07
2022-11-26T23:13:48.075Z,47.13
2022-11-26T23:16:19.888Z,41.37
2022-11-26T23:18:48.953Z,43.43
2022-11-26T23:21:18.733Z,40.17
2022-11-26T23:23:47.281Z,48.13
2022-11-26T23:26:20.518Z,38.30
2022-11-26T23:28:54.767Z,37.70
2022-11-26T23:31:24.693Z,38.43
2022-11-26T23:33:52.993Z,41.00
2022-11-26T23:36:21.600Z,39.30
2022-11-26T23:38:49.732Z,40.33
2022-11-26T23:41:17.912Z,39.87
2022-11-26T23:43:46.292Z,31.07
2022-11-26T23:46:18.421Z,39.67
2022-11-26T23:48:47.084Z,40.10
2022-11-26T23:51:16.823Z,37.20
2022-11-26T23:53:46.554Z,37.47
2022-11-26T23:56:17.355Z,31.30
2022-11-26T23:58:45.541Z,33.17
